Time;durP1;ratioP1;P1;durP2;ratioP2;P2;SDS_P1;SDS_P2;PMS_P1;PMS_P2;Temp;Humidity;BMP_temperature;BMP_pressure;BME280_temperature;BME280_humidity;BME280_pressure;Samples;Min_cycle;Max_cycle;Signal;HPM_P1;HPM_P2
2022/11/20 00:00:11;;;;;;;22.50;16.20;;;;;;;;;;508437;28;1241;-63
2022/11/20 00:00:26;;;;;;;23.33;16.80;;;;;;;;;;508310;28;1543;-63
2022/11/20 00:00:41;;;;;;;23.13;16.85;;;;;;;;;;510326;28;1583;-63
2022/11/20 00:00:57;;;;;;;23.07;16.60;;;;;;;;;;510028;28;1417;-63
2022/11/20 00:01:18;;;;;;;23.17;16.50;;;;;;;;;;510095;28;1423;-63
2022/11/20 00:01:33;;;;;;;22.88;16.77;;;;;;;;;;510650;28;1308;-63
2022/11/20 00:01:48;;;;;;;22.92;16.88;;;;;;;;;;510631;28;1550;-63
2022/11/20 00:02:04;;;;;;;23.83;16.70;;;;;;;;;;511028;28;1356;-62
2022/11/20 00:02:19;;;;;;;23.17;16.47;;;;;;;;;;507743;28;1783;-62
2022/11/20 00:02:34;;;;;;;21.73;16.02;;;;;;;;;;510504;28;1399;-63
2022/11/20 00:02:49;;;;;;;23.57;16.50;;;;;;;;;;508623;28;1591;-63
2022/11/20 00:03:05;;;;;;;24.83;16.97;;;;;;;;;;509449;28;1431;-63
2022/11/20 00:03:21;;;;;;;23.97;16.60;;;;;;;;;;507534;28;1373;-62
2022/11/20 00:03:36;;;;;;;23.10;16.27;;;;;;;;;;505769;28;1491;-62
2022/11/20 00:03:54;;;;;;;24.15;16.67;;;;;;;;;;507725;28;1755;-62
2022/11/20 00:04:11;;;;;;;24.90;16.73;;;;;;;;;;508507;28;1275;-63
2022/11/20 00:04:26;;;;;;;23.13;16.45;;;;;;;;;;508722;28;1323;-62
2022/11/20 00:04:42;;;;;;;23.23;16.60;;;;;;;;;;510955;28;1527;-63
2022/11/20 00:04:57;;;;;;;23.57;16.63;;;;;;;;;;511578;28;1227;-63
2022/11/20 00:05:13;;;;;;;24.77;17.40;;;;;;;;;;512301;28;1281;-62
2022/11/20 00:05:28;;;;;;;24.20;17.17;;;;;;;;;;510667;28;1635;-63
2022/11/20 00:05:44;;;;;;;24.33;17.15;;;;;;;;;;511357;28;1466;-63
2022/11/20 00:06:05;;;;;;;24.50;16.90;;;;;;;;;;511337;28;1372;-63
2022/11/20 00:06:22;;;;;;;24.73;17.25;;;;;;;;;;511472;28;1097;-62
2022/11/20 00:06:37;;;;;;;25.05;17.42;;;;;;;;;;511370;28;1379;-62
2022/11/20 00:06:52;;;;;;;25.17;17.30;;;;;;;;;;514996;28;1430;-63
2022/11/20 00:07:08;;;;;;;23.83;16.80;;;;;;;;;;514114;28;1828;-62
2022/11/20 00:07:23;;;;;;;24.67;16.67;;;;;;;;;;512587;28;1179;-62
2022/11/20 00:07:38;;;;;;;25.47;17.20;;;;;;;;;;512471;28;1489;-62
2022/11/20 00:07:54;;;;;;;24.10;17.58;;;;;;;;;;511463;28;1189;-63
2022/11/20 00:08:10;;;;;;;24.30;17.33;;;;;;;;;;511753;28;1482;-63
2022/11/20 00:08:25;;;;;;;25.25;17.42;;;;;;;;;;510568;28;1271;-62
2022/11/20 00:08:41;;;;;;;23.90;17.03;;;;;;;;;;510314;28;1692;-62
2022/11/20 00:08:59;;;;;;;22.55;16.20;;;;;;;;;;509995;28;1187;-62
2022/11/20 00:09:15;;;;;;;23.58;16.70;;;;;;;;;;510653;28;1423;-63
2022/11/20 00:09:30;;;;;;;23.63;16.83;;;;;;;;;;512871;28;1420;-62
2022/11/20 00:09:45;;;;;;;23.90;16.70;;;;;;;;;;512489;28;1541;-62
2022/11/20 00:10:00;;;;;;;24.77;16.77;;;;;;;;;;511345;28;1111;-63
2022/11/20 00:10:16;;;;;;;26.05;17.27;;;;;;;;;;514093;28;2559;-63
2022/11/20 00:10:32;;;;;;;25.67;17.80;;;;;;;;;;513421;28;1151;-62
2022/11/20 00:10:47;;;;;;;24.87;17.77;;;;;;;;;;512780;28;1274;-63
2022/11/20 00:11:10;;;;;;;25.10;17.70;;;;;;;;;;512853;28;1222;-64
2022/11/20 00:11:27;;;;;;;25.73;17.05;;;;;;;;;;513277;28;1523;-63
2022/11/20 00:11:42;;;;;;;25.85;17.15;;;;;;;;;;512129;28;1207;-63
2022/11/20 00:11:57;;;;;;;25.90;17.70;;;;;;;;;;512724;28;1473;-63
2022/11/20 00:12:13;;;;;;;24.23;17.27;;;;;;;;;;508742;28;1201;-63
2022/11/20 00:12:28;;;;;;;25.40;17.13;;;;;;;;;;509987;28;1246;-63
2022/11/20 00:12:43;;;;;;;26.10;17.27;;;;;;;;;;511230;28;1450;-63
2022/11/20 00:12:58;;;;;;;25.52;17.27;;;;;;;;;;511157;28;1186;-64
2022/11/20 00:13:14;;;;;;;26.13;17.77;;;;;;;;;;511976;28;1192;-63
2022/11/20 00:13:29;;;;;;;25.17;17.60;;;;;;;;;;511862;28;1705;-63
2022/11/20 00:13:46;;;;;;;24.48;17.00;;;;;;;;;;511372;28;1529;-63
2022/11/20 00:14:02;;;;;;;25.90;17.73;;;;;;;;;;512131;28;1441;-63
2022/11/20 00:14:17;;;;;;;25.52;17.60;;;;;;;;;;510222;28;1218;-63
2022/11/20 00:14:33;;;;;;;26.63;17.88;;;;;;;;;;509655;28;1142;-63
2022/11/20 00:14:48;;;;;;;27.63;18.30;;;;;;;;;;513284;28;1395;-63
2022/11/20 00:15:04;;;;;;;26.67;18.25;;;;;;;;;;513417;28;1721;-63
2022/11/20 00:15:19;;;;;;;24.67;17.83;;;;;;;;;;510388;28;1290;-63
2022/11/20 00:15:34;;;;;;;24.40;17.30;;;;;;;;;;507826;28;1160;-63
2022/11/20 00:15:56;;;;;;;25.20;17.37;;;;;;;;;;509685;28;1388;-62
2022/11/20 00:16:14;;;;;;;25.38;17.80;;;;;;;;;;507992;28;1200;-63
2022/11/20 00:16:31;;;;;;;27.42;18.25;;;;;;;;;;510619;28;1205;-62
2022/11/20 00:16:46;;;;;;;27.38;18.20;;;;;;;;;;510140;28;2029;-63
2022/11/20 00:17:02;;;;;;;26.70;18.13;;;;;;;;;;509186;28;1378;-63
2022/11/20 00:17:17;;;;;;;27.10;18.45;;;;;;;;;;509067;28;1944;-62
2022/11/20 00:17:32;;;;;;;28.37;19.10;;;;;;;;;;510977;28;1291;-62
2022/11/20 00:17:48;;;;;;;28.17;18.80;;;;;;;;;;512037;28;1749;-62
2022/11/20 00:18:03;;;;;;;26.77;17.83;;;;;;;;;;511568;28;1352;-63
2022/11/20 00:18:18;;;;;;;26.63;17.93;;;;;;;;;;511141;28;1722;-62
2022/11/20 00:18:34;;;;;;;27.10;18.70;;;;;;;;;;509244;28;1161;-63
2022/11/20 00:18:50;;;;;;;27.55;18.63;;;;;;;;;;511293;28;1392;-63
2022/11/20 00:19:06;;;;;;;27.70;18.05;;;;;;;;;;509880;28;1442;-63
2022/11/20 00:19:21;;;;;;;26.38;17.42;;;;;;;;;;508518;28;1449;-63
2022/11/20 00:19:36;;;;;;;25.33;17.53;;;;;;;;;;509369;28;1347;-63
2022/11/20 00:19:51;;;;;;;25.97;17.93;;;;;;;;;;509613;28;1497;-63
2022/11/20 00:20:07;;;;;;;27.05;18.15;;;;;;;;;;510092;28;1458;-62
2022/11/20 00:20:23;;;;;;;27.40;18.27;;;;;;;;;;510169;28;1450;-63
2022/11/20 00:20:38;;;;;;;25.38;17.40;;;;;;;;;;511297;28;1255;-63
2022/11/20 00:20:53;;;;;;;26.43;17.80;;;;;;;;;;512385;28;1164;-63
2022/11/20 00:21:16;;;;;;;28.85;18.67;;;;;;;;;;511563;28;1164;-63
2022/11/20 00:21:31;;;;;;;27.92;18.52;;;;;;;;;;514429;28;1785;-62
2022/11/20 00:21:47;;;;;;;26.38;17.92;;;;;;;;;;513122;28;1073;-64
2022/11/20 00:22:02;;;;;;;28.40;18.53;;;;;;;;;;514522;28;1346;-62
2022/11/20 00:22:17;;;;;;;28.00;18.27;;;;;;;;;;515620;28;1421;-64
2022/11/20 00:22:33;;;;;;;25.30;17.75;;;;;;;;;;513165;28;1134;-63
2022/11/20 00:22:49;;;;;;;26.63;18.37;;;;;;;;;;515052;28;1397;-62
2022/11/20 00:23:06;;;;;;;27.65;18.67;;;;;;;;;;513958;28;1756;-62
2022/11/20 00:23:22;;;;;;;25.92;18.05;;;;;;;;;;514124;28;1338;-62
2022/11/20 00:23:37;;;;;;;25.47;17.83;;;;;;;;;;512008;28;1128;-62
2022/11/20 00:23:54;;;;;;;26.30;17.83;;;;;;;;;;515146;28;1370;-63
2022/11/20 00:24:10;;;;;;;26.55;17.65;;;;;;;;;;512276;28;1578;-62
2022/11/20 00:24:25;;;;;;;26.83;17.90;;;;;;;;;;510424;28;1252;-62
2022/11/20 00:24:41;;;;;;;27.17;18.20;;;;;;;;;;512281;28;1711;-63
2022/11/20 00:24:57;;;;;;;25.97;18.00;;;;;;;;;;512734;28;1341;-63
2022/11/20 00:25:13;;;;;;;26.40;18.17;;;;;;;;;;512320;28;1218;-63
2022/11/20 00:25:28;;;;;;;26.87;18.10;;;;;;;;;;512643;28;1312;-63
2022/11/20 00:25:43;;;;;;;25.60;17.60;;;;;;;;;;510840;28;1132;-62
2022/11/20 00:26:03;;;;;;;25.63;17.33;;;;;;;;;;513152;28;1343;-63
2022/11/20 00:26:20;;;;;;;27.75;17.65;;;;;;;;;;513937;28;1733;-63
2022/11/20 00:26:35;;;;;;;27.00;18.00;;;;;;;;;;514285;28;1171;-62
2022/11/20 00:26:50;;;;;;;26.87;18.27;;;;;;;;;;514542;28;1079;-62
2022/11/20 00:27:06;;;;;;;27.07;18.10;;;;;;;;;;513738;28;1190;-62
2022/11/20 00:27:21;;;;;;;26.58;17.90;;;;;;;;;;510473;28;1143;-63
2022/11/20 00:27:37;;;;;;;26.17;17.80;;;;;;;;;;509102;28;1343;-62
2022/11/20 00:27:52;;;;;;;26.30;17.92;;;;;;;;;;510506;28;1712;-63
2022/11/20 00:28:07;;;;;;;26.07;17.90;;;;;;;;;;510489;28;1438;-62
2022/11/20 00:28:22;;;;;;;26.77;17.80;;;;;;;;;;507594;28;1581;-63
2022/11/20 00:28:38;;;;;;;27.37;18.17;;;;;;;;;;509390;28;1162;-63
2022/11/20 00:28:58;;;;;;;27.70;18.42;;;;;;;;;;507379;28;1379;-63
2022/11/20 00:29:14;;;;;;;27.00;18.13;;;;;;;;;;508743;28;1473;-62
2022/11/20 00:29:29;;;;;;;26.48;17.83;;;;;;;;;;509471;28;1720;-62
2022/11/20 00:29:44;;;;;;;26.63;18.10;;;;;;;;;;508697;28;1225;-63
2022/11/20 00:29:59;;;;;;;26.23;17.97;;;;;;;;;;509789;28;1264;-62
2022/11/20 00:30:15;;;;;;;25.47;17.70;;;;;;;;;;510611;28;1565;-63
2022/11/20 00:30:30;;;;;;;25.83;18.10;;;;;;;;;;514027;28;1076;-62
2022/11/20 00:30:45;;;;;;;26.17;18.00;;;;;;;;;;509243;28;1424;-62
2022/11/20 00:31:12;;;;;;;25.67;17.77;;;;;;;;;;508394;28;1756;-62
2022/11/20 00:31:29;;;;;;;26.13;18.10;;;;;;;;;;510560;28;1859;-62
2022/11/20 00:31:44;;;;;;;27.58;18.20;;;;;;;;;;510125;28;1289;-62
2022/11/20 00:31:59;;;;;;;29.20;18.57;;;;;;;;;;510022;28;1167;-64
2022/11/20 00:32:14;;;;;;;28.43;18.77;;;;;;;;;;509764;28;1232;-63
2022/11/20 00:32:30;;;;;;;27.20;18.48;;;;;;;;;;509203;28;1529;-63
2022/11/20 00:32:45;;;;;;;26.97;18.17;;;;;;;;;;512462;28;1610;-62
2022/11/20 00:33:00;;;;;;;27.10;18.23;;;;;;;;;;512107;28;1429;-63
2022/11/20 00:33:15;;;;;;;27.27;18.33;;;;;;;;;;512568;28;1438;-62
2022/11/20 00:33:31;;;;;;;27.57;18.77;;;;;;;;;;512107;28;1272;-62
2022/11/20 00:33:46;;;;;;;27.27;18.63;;;;;;;;;;512410;28;1324;-62
2022/11/20 00:34:02;;;;;;;26.77;18.23;;;;;;;;;;512667;28;1378;-63
2022/11/20 00:34:17;;;;;;;28.07;18.53;;;;;;;;;;512684;28;1477;-63
2022/11/20 00:34:32;;;;;;;28.50;18.65;;;;;;;;;;511486;28;2000;-63
2022/11/20 00:34:48;;;;;;;27.70;18.30;;;;;;;;;;508855;28;1530;-62
2022/11/20 00:35:03;;;;;;;27.40;18.50;;;;;;;;;;511208;28;1296;-62
2022/11/20 00:35:18;;;;;;;28.52;19.08;;;;;;;;;;511659;28;1391;-62
2022/11/20 00:35:34;;;;;;;28.97;19.07;;;;;;;;;;510864;28;1447;-63
2022/11/20 00:35:49;;;;;;;28.17;18.73;;;;;;;;;;513026;28;1715;-63
2022/11/20 00:36:07;;;;;;;28.75;18.75;;;;;;;;;;510859;28;1718;-62
2022/11/20 00:36:24;;;;;;;27.45;18.30;;;;;;;;;;513867;28;1456;-63
2022/11/20 00:36:40;;;;;;;26.92;18.17;;;;;;;;;;512952;28;1347;-63
2022/11/20 00:36:55;;;;;;;26.50;17.80;;;;;;;;;;511074;28;1144;-62
2022/11/20 00:37:10;;;;;;;26.45;18.00;;;;;;;;;;513043;28;2043;-63
2022/11/20 00:37:26;;;;;;;26.10;17.83;;;;;;;;;;514746;28;1472;-62
2022/11/20 00:37:41;;;;;;;24.73;17.00;;;;;;;;;;512262;28;1478;-62
2022/11/20 00:37:56;;;;;;;26.27;17.67;;;;;;;;;;512054;28;1454;-63
2022/11/20 00:38:11;;;;;;;26.93;17.97;;;;;;;;;;511798;28;1084;-62
2022/11/20 00:38:27;;;;;;;26.77;17.93;;;;;;;;;;507991;28;1450;-62
2022/11/20 00:38:43;;;;;;;27.33;18.17;;;;;;;;;;510051;28;1357;-62
2022/11/20 00:38:59;;;;;;;25.80;17.88;;;;;;;;;;509859;28;1341;-63
2022/11/20 00:39:14;;;;;;;27.55;18.23;;;;;;;;;;509572;28;1731;-63
2022/11/20 00:39:29;;;;;;;27.97;18.03;;;;;;;;;;510747;28;1206;-62
2022/11/20 00:39:44;;;;;;;26.10;17.40;;;;;;;;;;509061;28;1406;-62
2022/11/20 00:40:00;;;;;;;26.17;17.43;;;;;;;;;;512618;28;1399;-62
2022/11/20 00:40:15;;;;;;;25.70;17.67;;;;;;;;;;512384;28;1790;-62
2022/11/20 00:40:30;;;;;;;25.30;17.73;;;;;;;;;;511093;28;1251;-63
2022/11/20 00:40:45;;;;;;;26.23;17.23;;;;;;;;;;511789;28;1734;-63
2022/11/20 00:41:04;;;;;;;25.73;16.80;;;;;;;;;;509076;28;1213;-62
2022/11/20 00:41:19;;;;;;;25.60;17.42;;;;;;;;;;508863;28;1098;-62
2022/11/20 00:41:34;;;;;;;27.00;17.90;;;;;;;;;;510053;28;1420;-63
2022/11/20 00:41:50;;;;;;;26.70;17.43;;;;;;;;;;511126;28;1206;-62
2022/11/20 00:42:05;;;;;;;26.02;17.48;;;;;;;;;;509445;28;1661;-62
2022/11/20 00:42:20;;;;;;;25.13;17.77;;;;;;;;;;511693;28;2552;-63
2022/11/20 00:42:36;;;;;;;25.60;17.67;;;;;;;;;;512204;28;1547;-62
2022/11/20 00:42:51;;;;;;;25.98;17.45;;;;;;;;;;514780;28;1256;-63
2022/11/20 00:43:06;;;;;;;25.90;17.33;;;;;;;;;;514717;28;1146;-63
2022/11/20 00:43:21;;;;;;;26.57;17.90;;;;;;;;;;513977;28;1216;-62
2022/11/20 00:43:37;;;;;;;26.35;17.80;;;;;;;;;;514602;28;1243;-63
2022/11/20 00:43:54;;;;;;;26.13;17.67;;;;;;;;;;512978;28;1372;-62
2022/11/20 00:44:09;;;;;;;26.63;18.23;;;;;;;;;;512029;28;2031;-62
2022/11/20 00:44:24;;;;;;;27.43;18.57;;;;;;;;;;512557;28;1256;-63
2022/11/20 00:44:39;;;;;;;26.27;17.70;;;;;;;;;;508828;28;1508;-62
2022/11/20 00:44:55;;;;;;;25.30;17.35;;;;;;;;;;508807;28;1308;-62
2022/11/20 00:45:10;;;;;;;25.60;17.70;;;;;;;;;;508385;28;1423;-63
2022/11/20 00:45:25;;;;;;;24.73;17.33;;;;;;;;;;509586;28;1396;-63
2022/11/20 00:45:40;;;;;;;24.73;17.08;;;;;;;;;;508552;28;1892;-62
2022/11/20 00:46:04;;;;;;;25.60;17.30;;;;;;;;;;507369;28;1487;-62
2022/11/20 00:46:22;;;;;;;25.80;17.65;;;;;;;;;;509135;28;1419;-63
2022/11/20 00:46:37;;;;;;;25.42;17.55;;;;;;;;;;508846;28;1282;-62
2022/11/20 00:46:52;;;;;;;26.70;17.85;;;;;;;;;;509550;28;1427;-63
2022/11/20 00:47:08;;;;;;;26.77;17.67;;;;;;;;;;512084;28;1983;-63
2022/11/20 00:47:23;;;;;;;26.03;17.33;;;;;;;;;;509217;28;1305;-63
2022/11/20 00:47:38;;;;;;;25.50;17.40;;;;;;;;;;507722;28;1506;-62
2022/11/20 00:47:53;;;;;;;25.35;17.52;;;;;;;;;;506101;28;1367;-62
2022/11/20 00:48:09;;;;;;;26.23;17.57;;;;;;;;;;507251;29;1340;-62
2022/11/20 00:48:24;;;;;;;26.07;17.53;;;;;;;;;;508342;28;1361;-63
2022/11/20 00:48:40;;;;;;;24.20;17.10;;;;;;;;;;509914;28;1428;-63
2022/11/20 00:48:55;;;;;;;24.73;17.47;;;;;;;;;;509402;28;2679;-62
2022/11/20 00:49:10;;;;;;;26.77;18.17;;;;;;;;;;511249;28;1380;-63
2022/11/20 00:49:26;;;;;;;26.33;17.60;;;;;;;;;;512719;28;1466;-63
2022/11/20 00:49:41;;;;;;;24.73;16.67;;;;;;;;;;513796;28;1355;-63
2022/11/20 00:49:56;;;;;;;25.93;16.87;;;;;;;;;;512711;28;1302;-63
2022/11/20 00:50:12;;;;;;;26.63;17.47;;;;;;;;;;510107;28;1219;-63
2022/11/20 00:50:27;;;;;;;26.47;17.53;;;;;;;;;;512148;28;1698;-62
2022/11/20 00:50:42;;;;;;;25.83;17.55;;;;;;;;;;512271;28;1283;-62
2022/11/20 00:50:58;;;;;;;25.47;17.67;;;;;;;;;;512173;28;1310;-63
2022/11/20 00:51:15;;;;;;;25.55;17.27;;;;;;;;;;510042;28;1513;-62
2022/11/20 00:51:30;;;;;;;24.42;16.85;;;;;;;;;;505809;29;1254;-62
2022/11/20 00:51:46;;;;;;;25.83;17.47;;;;;;;;;;507544;29;1414;-62
2022/11/20 00:52:01;;;;;;;26.17;17.38;;;;;;;;;;504614;29;1631;-62
2022/11/20 00:52:16;;;;;;;25.23;17.03;;;;;;;;;;504823;29;1172;-63
2022/11/20 00:52:32;;;;;;;25.40;17.03;;;;;;;;;;506251;28;1037;-63
2022/11/20 00:52:47;;;;;;;25.10;16.77;;;;;;;;;;507811;28;1105;-63
2022/11/20 00:53:02;;;;;;;24.13;16.67;;;;;;;;;;509865;28;1261;-63
2022/11/20 00:53:18;;;;;;;25.00;17.17;;;;;;;;;;511433;28;1375;-63
2022/11/20 00:53:33;;;;;;;26.02;17.67;;;;;;;;;;511546;28;1635;-63
2022/11/20 00:53:49;;;;;;;25.63;17.57;;;;;;;;;;510445;28;1078;-63
2022/11/20 00:54:04;;;;;;;24.85;17.23;;;;;;;;;;511926;28;1218;-63
2022/11/20 00:54:19;;;;;;;25.53;17.40;;;;;;;;;;512557;28;1343;-63
2022/11/20 00:54:35;;;;;;;26.45;17.58;;;;;;;;;;513236;28;1447;-63
2022/11/20 00:54:50;;;;;;;27.13;17.73;;;;;;;;;;511256;28;1175;-62
2022/11/20 00:55:05;;;;;;;25.97;17.50;;;;;;;;;;511841;28;1383;-63
2022/11/20 00:55:21;;;;;;;24.77;16.90;;;;;;;;;;508600;28;1763;-62
2022/11/20 00:55:36;;;;;;;25.77;17.30;;;;;;;;;;509833;28;1612;-62
2022/11/20 00:55:57;;;;;;;26.23;17.57;;;;;;;;;;510147;28;1449;-62
2022/11/20 00:56:15;;;;;;;25.60;17.33;;;;;;;;;;509149;28;1879;-63
2022/11/20 00:56:30;;;;;;;25.13;17.52;;;;;;;;;;510125;28;1106;-62
2022/11/20 00:56:45;;;;;;;25.17;17.47;;;;;;;;;;508241;28;1448;-63
2022/11/20 00:57:01;;;;;;;26.48;17.70;;;;;;;;;;510280;28;1224;-62
2022/11/20 00:57:16;;;;;;;26.60;17.87;;;;;;;;;;512039;28;1986;-62
2022/11/20 00:57:31;;;;;;;25.67;17.40;;;;;;;;;;513961;28;1397;-62
2022/11/20 00:57:46;;;;;;;25.58;17.33;;;;;;;;;;511957;28;1493;-63
2022/11/20 00:58:02;;;;;;;25.67;17.33;;;;;;;;;;511445;28;1387;-62
2022/11/20 00:58:17;;;;;;;25.63;17.40;;;;;;;;;;512366;28;1374;-63
2022/11/20 00:58:35;;;;;;;24.93;17.40;;;;;;;;;;511679;28;1623;-62
2022/11/20 00:58:51;;;;;;;25.65;17.50;;;;;;;;;;510233;28;1104;-62
2022/11/20 00:59:08;;;;;;;27.37;17.60;;;;;;;;;;511916;28;1402;-64
2022/11/20 00:59:24;;;;;;;27.27;17.35;;;;;;;;;;511391;28;1419;-63
2022/11/20 00:59:39;;;;;;;25.80;17.33;;;;;;;;;;511839;28;1354;-63
2022/11/20 00:59:54;;;;;;;25.25;17.40;;;;;;;;;;510744;28;1550;-62
2022/11/20 01:00:10;;;;;;;25.00;17.40;;;;;;;;;;514327;28;2112;-62
2022/11/20 01:00:25;;;;;;;25.50;17.43;;;;;;;;;;513381;28;1417;-63
2022/11/20 01:00:40;;;;;;;26.33;17.33;;;;;;;;;;511216;28;1463;-63
2022/11/20 01:01:06;;;;;;;26.03;17.20;;;;;;;;;;509711;28;1304;-63
2022/11/20 01:01:28;;;;;;;26.75;17.65;;;;;;;;;;510137;28;1164;-63
2022/11/20 01:01:44;;;;;;;27.15;17.63;;;;;;;;;;511031;28;1713;-63
2022/11/20 01:01:59;;;;;;;26.08;17.23;;;;;;;;;;508636;28;1269;-63
2022/11/20 01:02:16;;;;;;;26.50;17.40;;;;;;;;;;509033;28;1139;-63
2022/11/20 01:02:31;;;;;;;26.77;17.88;;;;;;;;;;510971;28;1248;-63
2022/11/20 01:02:46;;;;;;;26.40;17.83;;;;;;;;;;509720;28;1356;-63
2022/11/20 01:03:02;;;;;;;26.53;18.23;;;;;;;;;;508274;28;1420;-63
2022/11/20 01:03:18;;;;;;;27.55;18.63;;;;;;;;;;505619;28;1709;-63
2022/11/20 01:03:36;;;;;;;26.98;18.25;;;;;;;;;;510399;28;1450;-63
2022/11/20 01:03:53;;;;;;;27.98;18.48;;;;;;;;;;510418;28;1237;-63
2022/11/20 01:04:08;;;;;;;29.75;18.48;;;;;;;;;;509664;28;1118;-64
2022/11/20 01:04:24;;;;;;;28.25;17.92;;;;;;;;;;510982;28;1348;-62
2022/11/20 01:04:39;;;;;;;27.20;17.83;;;;;;;;;;511328;28;1474;-63
2022/11/20 01:04:54;;;;;;;28.67;18.37;;;;;;;;;;512592;28;1542;-63
2022/11/20 01:05:09;;;;;;;27.27;17.80;;;;;;;;;;515118;28;1347;-63
2022/11/20 01:05:25;;;;;;;26.55;17.58;;;;;;;;;;513637;28;1132;-63
2022/11/20 01:05:40;;;;;;;27.37;18.20;;;;;;;;;;515084;28;1538;-63
2022/11/20 01:06:00;;;;;;;27.77;18.30;;;;;;;;;;514653;28;1264;-63
2022/11/20 01:06:21;;;;;;;27.33;17.90;;;;;;;;;;511340;28;1346;-63
2022/11/20 01:06:38;;;;;;;25.92;17.58;;;;;;;;;;512909;28;2154;-63
2022/11/20 01:06:53;;;;;;;26.83;18.10;;;;;;;;;;510953;28;1160;-62
2022/11/20 01:07:08;;;;;;;26.80;17.93;;;;;;;;;;512252;28;1101;-63
2022/11/20 01:07:23;;;;;;;27.17;17.93;;;;;;;;;;507758;28;1627;-64
2022/11/20 01:07:39;;;;;;;28.10;18.23;;;;;;;;;;508394;28;1376;-63
2022/11/20 01:07:54;;;;;;;27.23;17.60;;;;;;;;;;507845;28;1135;-63
2022/11/20 01:08:09;;;;;;;25.87;17.30;;;;;;;;;;507139;28;1518;-63
2022/11/20 01:08:25;;;;;;;26.92;18.17;;;;;;;;;;508304;28;1185;-63
2022/11/20 01:08:40;;;;;;;27.23;18.40;;;;;;;;;;510601;28;1430;-63
2022/11/20 01:08:58;;;;;;;27.23;18.08;;;;;;;;;;510351;28;1359;-63
2022/11/20 01:09:14;;;;;;;27.77;18.65;;;;;;;;;;510525;28;1145;-63
2022/11/20 01:09:29;;;;;;;28.05;18.35;;;;;;;;;;510787;28;1249;-63
2022/11/20 01:09:45;;;;;;;26.67;17.87;;;;;;;;;;512212;28;2046;-63
2022/11/20 01:10:00;;;;;;;27.07;17.90;;;;;;;;;;510597;28;1196;-63
2022/11/20 01:10:15;;;;;;;28.17;18.10;;;;;;;;;;508540;28;1092;-62
2022/11/20 01:10:31;;;;;;;28.23;18.53;;;;;;;;;;508942;28;1230;-63
2022/11/20 01:10:46;;;;;;;29.50;19.37;;;;;;;;;;511362;28;1427;-63
2022/11/20 01:11:03;;;;;;;29.38;19.00;;;;;;;;;;512471;28;1430;-63
2022/11/20 01:11:21;;;;;;;26.48;17.67;;;;;;;;;;511401;28;1726;-63
2022/11/20 01:11:39;;;;;;;25.95;17.67;;;;;;;;;;511199;28;1133;-63
2022/11/20 01:11:56;;;;;;;26.90;17.63;;;;;;;;;;511597;28;1568;-63
2022/11/20 01:12:11;;;;;;;27.70;18.40;;;;;;;;;;512053;28;1213;-63
2022/11/20 01:12:26;;;;;;;27.20;18.40;;;;;;;;;;510720;28;1267;-63
2022/11/20 01:12:42;;;;;;;27.57;18.00;;;;;;;;;;512230;28;1378;-63
2022/11/20 01:13:37;;;;;;;27.83;17.83;;;;;;;;;;509487;28;1098;-63
2022/11/20 01:13:54;;;;;;;27.50;18.38;;;;;;;;;;510443;28;1386;-63
2022/11/20 01:14:15;;;;;;;26.95;18.08;;;;;;;;;;507669;29;1500;-63
2022/11/20 01:14:30;;;;;;;27.65;18.50;;;;;;;;;;508977;28;1895;-63
2022/11/20 01:14:47;;;;;;;27.17;18.20;;;;;;;;;;511179;28;1530;-63
2022/11/20 01:15:02;;;;;;;26.85;18.00;;;;;;;;;;511781;28;1287;-63
2022/11/20 01:15:17;;;;;;;27.83;18.37;;;;;;;;;;511803;28;1809;-63
2022/11/20 01:15:33;;;;;;;28.42;18.52;;;;;;;;;;511588;28;1869;-63
2022/11/20 01:15:49;;;;;;;28.98;18.95;;;;;;;;;;512206;28;1287;-63
2022/11/20 01:16:11;;;;;;;27.90;18.40;;;;;;;;;;512751;28;1716;-63
2022/11/20 01:16:33;;;;;;;26.73;17.77;;;;;;;;;;513938;28;1303;-63
2022/11/20 01:16:50;;;;;;;27.45;18.15;;;;;;;;;;513329;28;1096;-63
2022/11/20 01:17:05;;;;;;;27.73;18.30;;;;;;;;;;511160;28;1461;-63
2022/11/20 01:17:20;;;;;;;27.73;18.23;;;;;;;;;;508698;28;1950;-63
2022/11/20 01:17:36;;;;;;;27.13;18.20;;;;;;;;;;512765;28;1304;-63
2022/11/20 01:17:51;;;;;;;26.13;17.87;;;;;;;;;;511057;28;2035;-63
2022/11/20 01:18:06;;;;;;;27.03;18.07;;;;;;;;;;512096;28;1164;-63
2022/11/20 01:18:21;;;;;;;27.70;18.42;;;;;;;;;;512779;28;1415;-63
2022/11/20 01:18:39;;;;;;;28.33;18.30;;;;;;;;;;512562;28;1577;-63
2022/11/20 01:18:58;;;;;;;28.02;18.10;;;;;;;;;;512195;28;1310;-63
2022/11/20 01:19:16;;;;;;;27.80;18.25;;;;;;;;;;514182;28;1152;-63
2022/11/20 01:19:31;;;;;;;28.50;18.48;;;;;;;;;;514179;28;1150;-63
2022/11/20 01:19:49;;;;;;;28.03;18.57;;;;;;;;;;514249;28;1127;-63
2022/11/20 01:20:05;;;;;;;28.77;18.98;;;;;;;;;;514812;28;1397;-63
2022/11/20 01:20:20;;;;;;;28.30;18.95;;;;;;;;;;511105;28;1383;-63
2022/11/20 01:20:36;;;;;;;28.20;18.70;;;;;;;;;;510659;28;1321;-62
2022/11/20 01:20:51;;;;;;;29.98;18.98;;;;;;;;;;510831;28;1486;-63
2022/11/20 01:21:12;;;;;;;30.03;19.17;;;;;;;;;;510890;28;1435;-63
2022/11/20 01:21:30;;;;;;;28.33;18.48;;;;;;;;;;509034;28;1069;-63
2022/11/20 01:21:49;;;;;;;29.77;19.15;;;;;;;;;;510588;28;1256;-63
2022/11/20 01:22:04;;;;;;;30.05;19.30;;;;;;;;;;510352;28;1164;-63
2022/11/20 01:22:19;;;;;;;27.90;18.27;;;;;;;;;;511613;28;1088;-63
2022/11/20 01:22:35;;;;;;;28.33;18.47;;;;;;;;;;512117;28;1420;-63
2022/11/20 01:22:50;;;;;;;28.13;18.50;;;;;;;;;;513083;28;1365;-63
2022/11/20 01:23:05;;;;;;;27.70;18.75;;;;;;;;;;511190;28;1486;-63
2022/11/20 01:23:20;;;;;;;28.47;19.33;;;;;;;;;;508548;28;1162;-62
2022/11/20 01:23:38;;;;;;;29.07;18.83;;;;;;;;;;510173;28;1439;-64
2022/11/20 01:23:53;;;;;;;29.73;18.35;;;;;;;;;;510993;28;1387;-63
2022/11/20 01:24:12;;;;;;;30.33;18.87;;;;;;;;;;509107;28;1691;-63
2022/11/20 01:24:27;;;;;;;29.98;19.00;;;;;;;;;;508768;28;1687;-63
2022/11/20 01:24:42;;;;;;;29.07;18.57;;;;;;;;;;510407;28;1382;-64
2022/11/20 01:24:58;;;;;;;29.17;18.90;;;;;;;;;;508884;28;1438;-63
2022/11/20 01:25:13;;;;;;;30.58;19.42;;;;;;;;;;511193;28;1218;-63
2022/11/20 01:25:28;;;;;;;30.67;19.73;;;;;;;;;;506647;28;1396;-63
2022/11/20 01:25:44;;;;;;;29.50;19.20;;;;;;;;;;509612;28;1769;-63
2022/11/20 01:26:01;;;;;;;29.70;18.70;;;;;;;;;;507928;29;1432;-63
2022/11/20 01:26:20;;;;;;;29.40;18.52;;;;;;;;;;507733;28;1373;-63
2022/11/20 01:26:37;;;;;;;28.83;18.15;;;;;;;;;;509292;28;1400;-63
2022/11/20 01:26:53;;;;;;;29.35;18.40;;;;;;;;;;510927;28;1483;-63
2022/11/20 01:27:08;;;;;;;28.57;18.73;;;;;;;;;;509479;28;1482;-63
2022/11/20 01:27:23;;;;;;;29.37;19.20;;;;;;;;;;506264;28;2677;-62
2022/11/20 01:27:38;;;;;;;30.23;19.30;;;;;;;;;;509590;28;1375;-63
2022/11/20 01:27:54;;;;;;;29.88;19.15;;;;;;;;;;511745;28;1435;-63
2022/11/20 01:28:09;;;;;;;29.30;19.13;;;;;;;;;;511227;28;1478;-63
2022/11/20 01:28:24;;;;;;;28.83;19.00;;;;;;;;;;509962;28;1304;-62
2022/11/20 01:28:40;;;;;;;28.75;18.90;;;;;;;;;;510560;28;1030;-63
2022/11/20 01:28:56;;;;;;;28.60;18.77;;;;;;;;;;509456;28;1665;-64
2022/11/20 01:29:21;;;;;;;28.05;18.50;;;;;;;;;;510187;28;1517;-63
2022/11/20 01:29:36;;;;;;;27.40;18.27;;;;;;;;;;511193;28;1399;-64
2022/11/20 01:29:51;;;;;;;28.15;18.23;;;;;;;;;;510235;28;1214;-63
2022/11/20 01:30:07;;;;;;;28.50;17.90;;;;;;;;;;509501;28;1181;-63
2022/11/20 01:30:23;;;;;;;28.25;17.90;;;;;;;;;;513379;28;1075;-62
2022/11/20 01:30:38;;;;;;;28.40;18.40;;;;;;;;;;512073;28;1651;-63
2022/11/20 01:30:53;;;;;;;27.47;18.47;;;;;;;;;;513181;28;1676;-63
2022/11/20 01:31:15;;;;;;;27.05;18.05;;;;;;;;;;512547;28;1150;-63
2022/11/20 01:31:36;;;;;;;29.33;18.38;;;;;;;;;;511501;28;1364;-63
2022/11/20 01:31:52;;;;;;;28.33;18.17;;;;;;;;;;510073;28;1460;-63
2022/11/20 01:32:07;;;;;;;28.42;18.70;;;;;;;;;;510523;28;1759;-63
2022/11/20 01:32:23;;;;;;;28.67;19.23;;;;;;;;;;508246;28;1394;-63
2022/11/20 01:32:38;;;;;;;28.47;19.20;;;;;;;;;;509216;28;1137;-63
2022/11/20 01:32:55;;;;;;;28.38;19.30;;;;;;;;;;510319;28;1368;-62
2022/11/20 01:33:10;;;;;;;27.77;19.10;;;;;;;;;;509803;28;1245;-63
2022/11/20 01:33:26;;;;;;;28.53;19.03;;;;;;;;;;511718;28;2008;-63
2022/11/20 01:33:43;;;;;;;29.30;19.10;;;;;;;;;;511726;28;1798;-63
2022/11/20 01:34:08;;;;;;;28.42;19.10;;;;;;;;;;510494;28;1434;-63
2022/11/20 01:34:24;;;;;;;28.58;18.50;;;;;;;;;;509851;28;1483;-63
2022/11/20 01:34:40;;;;;;;28.10;18.40;;;;;;;;;;511952;28;1174;-64
2022/11/20 01:34:55;;;;;;;29.23;18.77;;;;;;;;;;509851;28;1100;-63
2022/11/20 01:35:10;;;;;;;28.90;18.87;;;;;;;;;;509214;28;1131;-63
2022/11/20 01:35:26;;;;;;;27.73;18.60;;;;;;;;;;510200;28;2078;-63
2022/11/20 01:35:41;;;;;;;27.45;18.60;;;;;;;;;;510535;28;1380;-63
2022/11/20 01:36:04;;;;;;;27.10;18.63;;;;;;;;;;511072;28;1128;-63
2022/11/20 01:36:21;;;;;;;28.10;18.35;;;;;;;;;;511718;28;1403;-63
2022/11/20 01:36:38;;;;;;;27.38;18.17;;;;;;;;;;511585;28;1226;-63
2022/11/20 01:36:53;;;;;;;27.65;18.38;;;;;;;;;;512967;28;1651;-63
2022/11/20 01:37:09;;;;;;;28.00;18.37;;;;;;;;;;511517;28;1581;-63